This is the latest recevied weather packets stored in our database for station/object BMCB-15. If no packets are shown the sender has not sent any weather packets the latest 10 day(s).
| Time | Temp. | Humidity | Pressure | Rain* | Wind** | Luminosity | Snow |
|---|---|---|---|---|---|---|---|
| 1777193439 | 10.56° C | 77% | 1027.7 hPa | 0 mm | - | 560 W/m² | - |
| 1777191039 | 9.44° C | 80% | 1027.6 hPa | 0 mm | - | 458 W/m² | - |
| 1777187435 | 7.78° C | 86% | 1027.6 hPa | 0 mm | - | 288 W/m² | - |
| 1777186237 | 7.22° C | 89% | 1027.5 hPa | 0 mm | - | 240 W/m² | - |
| 1777182038 | 5° C | 93% | 1027.1 hPa | 0 mm | - | 42 W/m² | - |
| 1777176638 | 3.89° C | 89% | 1026.2 hPa | 0 mm | - | 0 W/m² | - |
| 1777165237 | 3.33° C | 84% | 1025.4 hPa | 0 mm | - | 0 W/m² | - |
| 1777164039 | 3.33° C | 85% | 1025.4 hPa | 0 mm | - | 0 W/m² | - |
| 1777161040 | 3.89° C | 83% | 1025.4 hPa | 0 mm | - | 0 W/m² | - |
| 1777159242 | 3.89° C | 82% | 1025.3 hPa | 0 mm | - | 0 W/m² | - |
| 1777158643 | 3.89° C | 80% | 1025.2 hPa | 0 mm | - | 0 W/m² | - |
| 1777158040 | 4.44° C | 79% | 1025.2 hPa | 0 mm | - | 0 W/m² | - |
| 1777155044 | 5.56° C | 72% | 1024.7 hPa | 0 mm | - | 0 W/m² | - |
| 1777125039 | 16.11° C | 49% | 1022.7 hPa | 0 mm | - | 636 W/m² | - |
| 1777124437 | 16.11° C | 47% | 1022.8 hPa | 0 mm | - | 692 W/m² | - |
| 1777123838 | 16.11° C | 46% | 1022.8 hPa | 0 mm | - | 744 W/m² | - |
| 1777113640 | 10° C | 87% | 1023.8 hPa | 0 mm | - | 764 W/m² | - |
| 1777111837 | 7.22° C | 10% | 1024.1 hPa | 0 mm | - | - | - |
| 1777106437 | 5.56° C | 10% | 1023.9 hPa | 0 mm | - | - | - |
| 1777105238 | 5.56° C | 10% | 1023.8 hPa | 0 mm | - | - | - |
| 1777103440 | 5° C | 10% | 1023.8 hPa | 0 mm | - | - | - |
| 1777092636 | 3.33° C | 10% | 1023 hPa | 0 mm | - | - | - |
| 1777089036 | 1.67° C | 98% | 1022.8 hPa | 0 mm | - | 0 W/m² | - |
| 1777087238 | 2.22° C | 97% | 1022.9 hPa | 0 mm | - | 0 W/m² | - |
| 1777084237 | 3.89° C | 96% | 1023.1 hPa | 0 mm | - | 0 W/m² | - |
* Rain latest hour (hover to see other rain measurements)
** Current wind speed in m/s (hover to see current wind gust speed)